Time;durP1;ratioP1;P1;durP2;ratioP2;P2;SDS_P1;SDS_P2;PMS_P1;PMS_P2;Temp;Humidity;BMP_temperature;BMP_pressure;BME280_temperature;BME280_humidity;BME280_pressure;Samples;Min_cycle;Max_cycle;Signal;HPM_P1;HPM_P2
2023/06/22 00:02:13;;;;;;;30.52;25.52;;;19.80;99.90;;;;;;5093028;28;20534;-80
2023/06/22 00:04:39;;;;;;;29.58;24.52;;;19.70;99.90;;;;;;5093058;28;20103;-79
2023/06/22 00:07:05;;;;;;;27.48;24.42;;;19.70;99.90;;;;;;5094265;28;20023;-79
2023/06/22 00:09:31;;;;;;;28.88;25.77;;;19.70;99.90;;;;;;5094035;28;20024;-80
2023/06/22 00:11:57;;;;;;;32.08;25.80;;;19.60;99.90;;;;;;5092744;28;20061;-79
2023/06/22 00:14:22;;;;;;;29.25;25.60;;;19.50;99.90;;;;;;5093770;28;20419;-79
2023/06/22 00:16:48;;;;;;;32.72;26.45;;;19.40;99.90;;;;;;5093957;28;20051;-79
2023/06/22 00:19:15;;;;;;;28.08;24.98;;;19.30;99.90;;;;;;5092694;28;20024;-79
2023/06/22 00:21:42;;;;;;;30.88;25.42;;;19.30;99.90;;;;;;5083590;28;20485;-80
2023/06/22 00:24:08;;;;;;;32.13;26.02;;;19.20;99.90;;;;;;5072499;28;20028;-79
2023/06/22 00:26:33;;;;;;;29.95;25.90;;;19.10;99.90;;;;;;5072760;28;20031;-79
2023/06/22 00:28:59;;;;;;;30.02;25.17;;;19.10;99.90;;;;;;5072716;28;20383;-80
2023/06/22 00:31:24;;;;;;;28.23;24.75;;;19.10;99.90;;;;;;5073532;28;20099;-79
2023/06/22 00:33:50;;;;;;;30.50;25.63;;;19.00;99.90;;;;;;5073518;28;20100;-79
2023/06/22 00:36:17;;;;;;;29.35;23.98;;;19.10;99.90;;;;;;5072202;28;20060;-79
2023/06/22 00:38:43;;;;;;;25.45;22.05;;;19.00;99.90;;;;;;5082316;28;20520;-79
2023/06/22 00:41:09;;;;;;;26.08;23.08;;;19.10;99.90;;;;;;5092403;28;20093;-80
2023/06/22 00:43:35;;;;;;;29.55;24.80;;;19.10;99.90;;;;;;5093624;28;20028;-81
2023/06/22 00:46:00;;;;;;;28.70;24.23;;;19.10;99.90;;;;;;5093597;28;20024;-79
2023/06/22 00:48:26;;;;;;;28.00;24.75;;;19.10;99.90;;;;;;5093496;28;20052;-81
2023/06/22 00:50:53;;;;;;;28.05;24.75;;;19.00;99.90;;;;;;5093521;28;20103;-80
2023/06/22 00:53:19;;;;;;;29.27;26.17;;;19.00;99.90;;;;;;5093359;28;20115;-80
2023/06/22 00:55:51;;;;;;;26.85;23.98;;;18.80;99.90;;;;;;5094359;28;20057;-79
2023/06/22 00:58:21;;;;;;;29.58;25.83;;;18.70;99.90;;;;;;5100596;28;20019;-81
2023/06/22 01:00:47;;;;;;;30.75;25.25;;;18.70;99.90;;;;;;5098929;28;20028;-81
2023/06/22 01:03:14;;;;;;;29.80;25.10;;;18.60;99.90;;;;;;5100205;28;20055;-79
2023/06/22 01:05:40;;;;;;;28.48;23.95;;;18.60;99.90;;;;;;5100086;28;20019;-81
2023/06/22 01:08:28;;;;;;;27.45;23.90;;;18.60;99.90;;;;;;5098866;28;20043;-79
2023/06/22 01:10:56;;;;;;;30.05;23.70;;;18.70;99.90;;;;;;5098949;28;20031;-80
2023/06/22 01:13:30;;;;;;;30.52;24.00;;;18.70;99.90;;;;;;5100098;28;20105;-80
2023/06/22 01:16:03;;;;;;;30.83;23.23;;;18.80;99.90;;;;;;5098861;28;20027;-79
2023/06/22 01:18:31;;;;;;;28.85;23.38;;;18.80;99.90;;;;;;5100800;28;20038;-79
2023/06/22 01:20:58;;;;;;;25.77;22.23;;;18.80;99.90;;;;;;5099044;28;20031;-80
2023/06/22 01:23:48;;;;;;;29.58;20.85;;;18.80;99.90;;;;;;5099744;28;20032;-80
2023/06/22 01:26:27;;;;;;;26.80;20.65;;;18.80;99.90;;;;;;5099572;28;20389;-81
2023/06/22 01:28:55;;;;;;;25.38;19.77;;;18.90;99.90;;;;;;5079506;28;20029;-79
2023/06/22 01:31:26;;;;;;;23.63;18.77;;;18.90;99.90;;;;;;5078357;28;20024;-80
2023/06/22 01:34:12;;;;;;;22.57;19.23;;;18.90;99.90;;;;;;5078119;28;20607;-80
2023/06/22 01:36:39;;;;;;;25.38;19.38;;;18.90;99.90;;;;;;5079686;28;20093;-80
2023/06/22 01:39:06;;;;;;;28.17;18.98;;;18.90;99.90;;;;;;5078317;28;20061;-80
2023/06/22 01:41:35;;;;;;;23.67;18.33;;;18.90;99.90;;;;;;5078448;28;20482;-80
2023/06/22 01:44:02;;;;;;;22.65;17.20;;;18.80;99.90;;;;;;5078264;28;20020;-80
2023/06/22 01:46:28;;;;;;;22.80;18.05;;;18.70;99.90;;;;;;5099268;28;20028;-80
2023/06/22 01:48:55;;;;;;;25.80;17.58;;;18.70;99.90;;;;;;5098506;28;20044;-80
2023/06/22 01:51:20;;;;;;;25.25;17.90;;;18.70;99.90;;;;;;5099882;28;20067;-79
2023/06/22 01:53:47;;;;;;;24.33;17.30;;;18.70;99.90;;;;;;5099771;28;20556;-79
2023/06/22 01:56:16;;;;;;;26.83;16.95;;;18.70;99.90;;;;;;5098585;28;20021;-80
2023/06/22 01:59:05;;;;;;;19.48;16.30;;;18.70;99.90;;;;;;5099766;28;20016;-80
2023/06/22 02:01:39;;;;;;;24.38;17.30;;;18.70;99.90;;;;;;5098199;28;20043;-80
2023/06/22 02:04:13;;;;;;;20.50;15.73;;;18.80;99.90;;;;;;5099704;28;20020;-79
2023/06/22 02:06:42;;;;;;;22.67;15.95;;;18.80;99.90;;;;;;5099010;28;20098;-79
2023/06/22 02:09:14;;;;;;;21.92;16.42;;;18.80;99.90;;;;;;5095750;28;20074;-79
2023/06/22 02:11:43;;;;;;;19.40;15.73;;;18.80;99.90;;;;;;5095130;28;20039;-80
2023/06/22 02:14:09;;;;;;;26.00;17.25;;;18.80;99.90;;;;;;5095090;28;20031;-81
2023/06/22 02:16:37;;;;;;;21.63;17.67;;;18.80;99.90;;;;;;5096305;28;20358;-79
2023/06/22 02:19:03;;;;;;;27.70;19.00;;;18.80;99.90;;;;;;5096230;28;20102;-79
2023/06/22 02:21:29;;;;;;;25.20;20.63;;;18.70;99.90;;;;;;5094713;28;20566;-79
2023/06/22 02:23:55;;;;;;;26.98;19.95;;;18.70;99.90;;;;;;5096197;28;20020;-80
2023/06/22 02:26:21;;;;;;;28.88;19.58;;;18.70;99.90;;;;;;5096018;28;20028;-79
2023/06/22 02:28:47;;;;;;;27.63;22.05;;;18.70;99.90;;;;;;5096048;28;20489;-80
2023/06/22 02:31:12;;;;;;;23.30;19.13;;;18.70;99.90;;;;;;5094757;28;20027;-80
2023/06/22 02:33:38;;;;;;;28.00;20.88;;;18.70;99.90;;;;;;5094774;28;20506;-80
2023/06/22 02:36:05;;;;;;;35.45;19.92;;;18.70;99.90;;;;;;5094721;28;20107;-80
2023/06/22 02:38:33;;;;;;;27.52;20.15;;;18.70;99.90;;;;;;5094619;28;20482;-80
2023/06/22 02:40:58;;;;;;;30.67;19.58;;;18.70;99.90;;;;;;5095823;28;20085;-79
2023/06/22 02:43:25;;;;;;;26.95;19.35;;;18.70;99.90;;;;;;5094308;28;20473;-80
2023/06/22 02:45:50;;;;;;;36.17;21.60;;;18.70;99.90;;;;;;5094407;28;20105;-80
2023/06/22 02:48:16;;;;;;;27.30;20.05;;;18.60;99.90;;;;;;5094368;28;20089;-80
2023/06/22 02:50:42;;;;;;;26.50;20.95;;;18.70;99.90;;;;;;5095786;28;20058;-80
2023/06/22 02:53:07;;;;;;;27.98;19.90;;;18.60;99.90;;;;;;5095568;28;20174;-80
2023/06/22 02:55:33;;;;;;;34.92;21.00;;;18.60;99.90;;;;;;5094334;28;20028;-80
2023/06/22 02:57:59;;;;;;;26.08;20.25;;;18.60;99.90;;;;;;5095566;28;20028;-79
2023/06/22 03:00:30;;;;;;;30.58;21.17;;;18.40;99.90;;;;;;5095445;28;20391;-80
2023/06/22 03:02:55;;;;;;;28.52;21.05;;;18.30;99.90;;;;;;5094068;28;20123;-80
2023/06/22 03:05:21;;;;;;;32.08;23.80;;;18.30;99.90;;;;;;5093968;28;20524;-80
2023/06/22 03:07:47;;;;;;;32.58;22.48;;;18.30;99.90;;;;;;5093800;28;20016;-80
2023/06/22 03:10:14;;;;;;;35.50;20.80;;;18.30;99.90;;;;;;5095361;28;20036;-80
2023/06/22 03:12:41;;;;;;;27.85;19.63;;;18.30;99.90;;;;;;5093876;28;20032;-80
2023/06/22 03:15:08;;;;;;;27.67;20.90;;;18.30;99.90;;;;;;5094097;28;20024;-80
2023/06/22 03:17:35;;;;;;;26.85;20.48;;;18.40;99.90;;;;;;5093784;28;20122;-80
2023/06/22 03:20:11;;;;;;;30.25;23.27;;;18.30;99.90;;;;;;5095051;28;20024;-80
2023/06/22 03:22:38;;;;;;;28.65;20.50;;;18.40;99.90;;;;;;5094878;28;20032;-81
2023/06/22 03:25:04;;;;;;;21.98;17.05;;;18.30;99.90;;;;;;5093644;28;20027;-80
2023/06/22 03:27:30;;;;;;;22.52;15.38;;;18.20;99.90;;;;;;5093780;28;20028;-80
2023/06/22 03:29:57;;;;;;;21.60;16.27;;;18.10;99.90;;;;;;5093771;28;20020;-80
2023/06/22 03:32:23;;;;;;;18.00;14.82;;;18.10;99.90;;;;;;5093477;28;20016;-80
2023/06/22 03:34:49;;;;;;;16.92;13.55;;;18.10;99.90;;;;;;5093546;28;20115;-80
2023/06/22 03:37:15;;;;;;;17.70;15.00;;;18.10;99.90;;;;;;5094834;28;20073;-80
2023/06/22 03:39:41;;;;;;;25.27;18.30;;;18.20;99.90;;;;;;5093346;28;20024;-80
2023/06/22 03:42:08;;;;;;;25.00;17.85;;;18.20;99.90;;;;;;5094527;28;20028;-80
2023/06/22 03:44:36;;;;;;;25.20;19.73;;;18.40;99.90;;;;;;5094764;28;20047;-80
2023/06/22 03:47:02;;;;;;;24.25;17.35;;;18.40;99.90;;;;;;5094343;28;20503;-81
2023/06/22 03:49:28;;;;;;;25.58;18.08;;;18.50;99.90;;;;;;5094479;28;20110;-80
2023/06/22 03:51:53;;;;;;;20.60;16.98;;;18.60;99.90;;;;;;5093237;28;20119;-80
2023/06/22 03:54:19;;;;;;;24.20;16.70;;;18.80;99.90;;;;;;5094472;28;20027;-80
2023/06/22 03:56:44;;;;;;;19.92;14.98;;;18.90;99.90;;;;;;5092310;28;20024;-80
2023/06/22 03:59:10;;;;;;;21.48;15.27;;;19.00;99.90;;;;;;5094302;28;20021;-80
2023/06/22 04:01:36;;;;;;;18.92;14.38;;;19.10;99.90;;;;;;5092916;28;20024;-80
2023/06/22 04:04:02;;;;;;;21.60;15.43;;;19.30;99.90;;;;;;5094468;28;20470;-80
2023/06/22 04:06:27;;;;;;;20.77;14.52;;;19.50;99.90;;;;;;5094284;28;20297;-81
2023/06/22 04:08:53;;;;;;;24.48;14.77;;;19.70;99.90;;;;;;5092907;28;20027;-81
2023/06/22 04:11:19;;;;;;;18.05;14.85;;;19.80;99.90;;;;;;5094210;28;20039;-80
2023/06/22 04:13:44;;;;;;;24.75;15.25;;;20.00;99.90;;;;;;5092783;28;20056;-80
2023/06/22 04:16:10;;;;;;;21.35;14.80;;;20.10;99.90;;;;;;5092781;28;20024;-80
2023/06/22 04:18:36;;;;;;;18.83;15.23;;;20.10;99.90;;;;;;5093945;28;20052;-80
2023/06/22 04:21:02;;;;;;;21.75;14.13;;;20.20;99.90;;;;;;5094316;28;20028;-81
2023/06/22 04:23:28;;;;;;;18.92;13.48;;;20.30;99.90;;;;;;5092594;28;20515;-81
2023/06/22 04:25:56;;;;;;;19.00;13.50;;;20.20;99.90;;;;;;5094162;28;20016;-80
2023/06/22 04:28:22;;;;;;;19.08;13.38;;;20.00;99.90;;;;;;5094073;28;20031;-80
2023/06/22 04:30:47;;;;;;;21.73;14.57;;;20.00;99.90;;;;;;5093310;28;20474;-80
2023/06/22 04:33:16;;;;;;;20.40;14.32;;;19.90;99.90;;;;;;5092556;28;20045;-80
2023/06/22 04:35:45;;;;;;;23.17;15.05;;;19.90;99.90;;;;;;5093689;28;20020;-80
2023/06/22 04:38:13;;;;;;;23.15;15.13;;;20.00;99.90;;;;;;5094027;28;20020;-81
2023/06/22 04:40:39;;;;;;;25.33;15.40;;;20.00;99.90;;;;;;5093827;28;20103;-80
2023/06/22 04:43:06;;;;;;;24.92;15.75;;;20.00;99.90;;;;;;5093908;28;20028;-80
2023/06/22 04:45:37;;;;;;;25.70;15.07;;;20.20;99.90;;;;;;5092482;28;20073;-80
2023/06/22 04:48:03;;;;;;;23.85;15.05;;;20.30;99.90;;;;;;5093673;28;20040;-81
2023/06/22 04:50:29;;;;;;;23.48;14.70;;;20.30;99.90;;;;;;5093699;28;20024;-80
2023/06/22 04:52:55;;;;;;;39.35;25.10;;;20.50;99.90;;;;;;5093513;28;20074;-80
2023/06/22 04:55:20;;;;;;;30.38;22.63;;;20.60;99.90;;;;;;5092275;28;20093;-79
2023/06/22 04:57:49;;;;;;;28.05;19.77;;;20.60;99.90;;;;;;5093467;28;20098;-80
2023/06/22 05:00:21;;;;;;;32.78;20.90;;;20.80;99.90;;;;;;5092282;28;20024;-81
2023/06/22 05:02:47;;;;;;;32.63;20.08;;;20.90;99.90;;;;;;5093372;28;20074;-80
2023/06/22 05:05:13;;;;;;;26.23;18.38;;;21.00;99.90;;;;;;5092204;28;20048;-81
2023/06/22 05:07:42;;;;;;;28.67;20.42;;;21.00;99.90;;;;;;5075650;28;20107;-80
2023/06/22 05:10:10;;;;;;;32.22;20.98;;;21.00;99.90;;;;;;5073242;28;20055;-81
2023/06/22 05:12:36;;;;;;;26.42;21.95;;;21.00;99.90;;;;;;5073074;28;20039;-80
2023/06/22 05:15:01;;;;;;;31.25;24.10;;;21.10;99.90;;;;;;5072157;28;20028;-80
2023/06/22 05:17:27;;;;;;;34.28;24.80;;;21.10;99.90;;;;;;5071506;28;20028;-80
2023/06/22 05:19:53;;;;;;;36.88;25.55;;;21.20;99.90;;;;;;5073127;28;20073;-79
2023/06/22 05:22:19;;;;;;;37.30;26.88;;;21.30;99.90;;;;;;5071503;28;20040;-80
2023/06/22 05:24:45;;;;;;;35.40;24.83;;;21.40;99.90;;;;;;5088586;28;20020;-81
2023/06/22 05:27:10;;;;;;;39.65;27.85;;;21.40;99.90;;;;;;5092112;28;20189;-81
2023/06/22 05:29:37;;;;;;;37.90;26.77;;;21.40;99.90;;;;;;5092385;28;20035;-80
2023/06/22 05:32:03;;;;;;;34.85;27.15;;;21.50;99.90;;;;;;5076432;28;20021;-79
2023/06/22 05:34:29;;;;;;;34.75;29.27;;;21.60;99.90;;;;;;5071597;28;20035;-80
2023/06/22 05:36:54;;;;;;;39.80;29.15;;;21.50;99.90;;;;;;5071626;28;20017;-80
2023/06/22 05:39:20;;;;;;;34.35;27.38;;;21.60;99.90;;;;;;5072897;28;20100;-80
2023/06/22 05:41:46;;;;;;;36.08;28.40;;;21.80;99.90;;;;;;5071368;28;20374;-80
2023/06/22 05:44:12;;;;;;;34.53;30.80;;;22.00;99.90;;;;;;5075932;28;20017;-81
2023/06/22 05:46:44;;;;;;;33.72;27.30;;;22.20;99.90;;;;;;5075338;28;20110;-81
2023/06/22 05:49:10;;;;;;;32.05;28.50;;;22.40;99.90;;;;;;5076482;28;20075;-80
2023/06/22 05:51:36;;;;;;;33.92;27.27;;;22.60;99.90;;;;;;5075107;28;20025;-80
2023/06/22 05:54:01;;;;;;;32.53;27.42;;;22.80;99.90;;;;;;5083985;28;20025;-80
2023/06/22 05:56:27;;;;;;;35.72;28.00;;;22.80;99.90;;;;;;5083209;28;20024;-81
2023/06/22 05:58:53;;;;;;;32.78;28.13;;;22.90;99.90;;;;;;5085466;28;20023;-80
2023/06/22 06:01:19;;;;;;;30.88;26.10;;;23.20;99.90;;;;;;5087276;28;20027;-81
2023/06/22 06:03:44;;;;;;;28.48;25.48;;;23.40;99.90;;;;;;5090777;28;20114;-80
2023/06/22 06:06:10;;;;;;;28.73;23.83;;;23.60;99.90;;;;;;5094072;28;20020;-81
2023/06/22 06:08:39;;;;;;;26.75;21.73;;;23.60;99.90;;;;;;5082556;28;20028;-80
2023/06/22 06:11:05;;;;;;;23.02;20.40;;;23.50;99.90;;;;;;5085351;28;20024;-80
2023/06/22 06:13:31;;;;;;;21.77;18.48;;;23.60;99.90;;;;;;5089056;28;20381;-81
2023/06/22 06:15:57;;;;;;;21.02;18.48;;;23.50;99.90;;;;;;5081542;28;20041;-80
2023/06/22 06:18:22;;;;;;;19.58;17.55;;;23.40;99.90;;;;;;5091414;28;20024;-81
2023/06/22 06:20:48;;;;;;;18.50;16.65;;;23.60;99.90;;;;;;5095394;28;20028;-81
2023/06/22 06:23:14;;;;;;;17.83;15.57;;;23.60;99.90;;;;;;5079506;28;20038;-82
2023/06/22 06:25:39;;;;;;;18.98;15.20;;;23.70;99.90;;;;;;5089426;28;20023;-80
2023/06/22 06:28:05;;;;;;;17.08;15.35;;;23.80;99.90;;;;;;5093399;28;20112;-80
2023/06/22 06:30:31;;;;;;;16.83;14.73;;;23.60;99.90;;;;;;5076631;28;20052;-80
2023/06/22 06:32:56;;;;;;;15.43;13.82;;;23.50;99.90;;;;;;5085040;28;20021;-82
2023/06/22 06:35:22;;;;;;;16.70;14.80;;;23.40;99.90;;;;;;5084803;28;20472;-82
2023/06/22 06:37:49;;;;;;;15.80;13.25;;;23.60;99.90;;;;;;5084160;28;20020;-81
2023/06/22 06:40:16;;;;;;;13.68;12.27;;;23.50;99.90;;;;;;5085070;28;20024;-80
2023/06/22 06:42:45;;;;;;;15.32;12.55;;;23.30;99.90;;;;;;5082430;28;20119;-81
2023/06/22 06:45:16;;;;;;;15.75;12.93;;;23.30;99.90;;;;;;5082367;28;20532;-80
2023/06/22 06:47:42;;;;;;;15.32;13.55;;;23.40;99.90;;;;;;5075078;28;20064;-80
2023/06/22 06:50:08;;;;;;;14.57;12.85;;;23.40;99.90;;;;;;5075326;28;20029;-80
2023/06/22 06:52:36;;;;;;;15.73;13.00;;;23.40;99.90;;;;;;5073607;28;20094;-82
2023/06/22 06:55:04;;;;;;;14.40;12.88;;;23.40;99.90;;;;;;5072734;28;20052;-80
2023/06/22 06:57:30;;;;;;;14.30;12.07;;;23.60;99.90;;;;;;5073257;28;20020;-82
2023/06/22 06:59:58;;;;;;;13.93;11.65;;;23.80;99.90;;;;;;5073227;28;20596;-80
2023/06/22 07:02:24;;;;;;;12.25;11.05;;;23.90;99.90;;;;;;5072326;28;20040;-81
2023/06/22 07:04:50;;;;;;;12.65;11.30;;;24.10;98.30;;;;;;5072695;28;20127;-80
2023/06/22 07:07:16;;;;;;;11.40;9.77;;;24.30;94.20;;;;;;5073242;28;20036;-79
2023/06/22 07:09:41;;;;;;;12.20;10.23;;;24.30;91.00;;;;;;5074899;28;20035;-81
2023/06/22 07:12:08;;;;;;;11.82;10.02;;;24.40;88.90;;;;;;5079487;28;20099;-80
2023/06/22 07:14:33;;;;;;;11.27;10.07;;;24.50;85.80;;;;;;5092751;28;20028;-81
2023/06/22 07:16:59;;;;;;;10.73;9.32;;;24.60;85.20;;;;;;5093719;28;20027;-81
2023/06/22 07:19:26;;;;;;;10.90;9.82;;;24.40;84.70;;;;;;5093861;28;20016;-81
2023/06/22 07:21:53;;;;;;;10.70;9.52;;;24.60;87.10;;;;;;5095094;28;20028;-81
2023/06/22 07:24:19;;;;;;;12.05;9.43;;;24.80;83.50;;;;;;5093755;28;20484;-82
2023/06/22 07:26:46;;;;;;;11.55;9.63;;;24.80;81.70;;;;;;5081404;28;20024;-81
2023/06/22 07:29:11;;;;;;;11.90;9.70;;;25.00;81.80;;;;;;5073007;28;20025;-81
2023/06/22 07:31:39;;;;;;;10.55;9.45;;;24.90;80.80;;;;;;5074351;28;20047;-81
2023/06/22 07:34:05;;;;;;;11.02;8.75;;;25.00;82.10;;;;;;5074868;28;20366;-81
2023/06/22 07:36:31;;;;;;;10.52;9.40;;;25.10;80.70;;;;;;5073708;28;20039;-81
2023/06/22 07:38:56;;;;;;;9.73;8.73;;;25.00;80.50;;;;;;5072394;28;20020;-81
2023/06/22 07:41:22;;;;;;;11.13;9.18;;;25.00;80.10;;;;;;5072361;28;20122;-81
2023/06/22 07:43:48;;;;;;;10.38;9.27;;;24.60;78.10;;;;;;5071077;28;20031;-81
2023/06/22 07:46:13;;;;;;;11.27;8.40;;;24.50;80.30;;;;;;5072351;28;20016;-82
2023/06/22 07:48:41;;;;;;;9.82;8.70;;;24.60;79.90;;;;;;5072567;28;20123;-82
2023/06/22 07:51:07;;;;;;;8.95;8.05;;;24.70;78.40;;;;;;5072546;28;20020;-81
2023/06/22 07:53:32;;;;;;;10.15;9.18;;;24.70;77.60;;;;;;5073381;28;20107;-80
2023/06/22 07:55:58;;;;;;;8.90;7.97;;;24.90;79.50;;;;;;5074371;28;20056;-82
2023/06/22 07:58:24;;;;;;;12.57;8.38;;;25.00;77.00;;;;;;5074238;28;20382;-81
2023/06/22 08:00:49;;;;;;;20.10;9.55;;;25.20;75.30;;;;;;5072956;28;20024;-80
2023/06/22 08:03:15;;;;;;;9.57;7.82;;;25.50;75.40;;;;;;5072945;28;20036;-81
2023/06/22 08:05:41;;;;;;;9.18;8.30;;;25.30;73.30;;;;;;5073411;28;20027;-80
2023/06/22 08:08:06;;;;;;;10.18;7.60;;;25.40;72.60;;;;;;5074134;28;20024;-81
2023/06/22 08:10:32;;;;;;;9.07;8.18;;;25.30;72.00;;;;;;5073986;28;20524;-82
2023/06/22 08:12:58;;;;;;;8.60;7.57;;;25.40;73.10;;;;;;5074028;28;20035;-82
2023/06/22 08:15:25;;;;;;;8.85;7.95;;;25.60;71.40;;;;;;5074153;28;20108;-81
2023/06/22 08:17:52;;;;;;;8.90;8.05;;;25.70;71.30;;;;;;5073931;28;20024;-82
2023/06/22 08:20:17;;;;;;;9.65;7.50;;;25.90;70.30;;;;;;5074025;28;20159;-81
2023/06/22 08:22:43;;;;;;;12.80;8.05;;;25.90;69.30;;;;;;5073561;28;20490;-82
2023/06/22 08:25:10;;;;;;;8.05;7.30;;;25.90;68.70;;;;;;5073820;28;20078;-81
2023/06/22 08:27:36;;;;;;;12.13;8.38;;;26.00;68.10;;;;;;5073779;28;20052;-82
2023/06/22 08:30:02;;;;;;;9.43;8.05;;;26.30;65.90;;;;;;5074064;28;20078;-81
2023/06/22 08:32:28;;;;;;;8.77;7.97;;;26.30;66.40;;;;;;5073753;28;20024;-81
2023/06/22 08:34:55;;;;;;;13.18;7.97;;;26.50;64.20;;;;;;5073798;28;20031;-81
2023/06/22 08:37:23;;;;;;;32.78;9.32;;;26.50;65.80;;;;;;5073574;28;20113;-82
2023/06/22 08:39:50;;;;;;;9.15;6.93;;;26.50;65.50;;;;;;5073699;28;20391;-82
2023/06/22 08:42:16;;;;;;;9.85;8.40;;;26.50;64.50;;;;;;5072091;28;20471;-82
2023/06/22 08:44:41;;;;;;;8.50;7.18;;;26.40;64.90;;;;;;5073603;28;20025;-83
2023/06/22 08:47:07;;;;;;;7.45;6.85;;;26.40;64.90;;;;;;5072322;28;20028;-81
2023/06/22 08:49:32;;;;;;;8.57;6.75;;;26.60;64.60;;;;;;5073579;28;20028;-81
2023/06/22 08:51:58;;;;;;;9.82;6.75;;;26.60;63.00;;;;;;5072296;28;20162;-82
2023/06/22 08:54:23;;;;;;;7.78;6.80;;;26.80;63.40;;;;;;5072163;28;20028;-82
2023/06/22 08:56:49;;;;;;;8.00;6.93;;;26.70;61.90;;;;;;5072071;28;20020;-82
2023/06/22 08:59:15;;;;;;;9.77;6.88;;;26.80;60.90;;;;;;5073568;28;20025;-82
2023/06/22 09:01:40;;;;;;;8.73;6.13;;;26.90;61.10;;;;;;5073495;28;20029;-82
2023/06/22 09:04:09;;;;;;;6.57;5.93;;;27.10;61.20;;;;;;5072265;28;20466;-82
2023/06/22 09:06:34;;;;;;;7.65;6.68;;;27.10;60.60;;;;;;5072133;28;20058;-82
2023/06/22 09:09:00;;;;;;;6.95;6.10;;;26.90;59.90;;;;;;5073323;28;20490;-82
2023/06/22 09:11:25;;;;;;;7.20;6.40;;;26.90;60.20;;;;;;5073283;28;20025;-82
2023/06/22 09:13:53;;;;;;;8.10;7.30;;;27.20;59.80;;;;;;5072262;28;20032;-81
2023/06/22 09:16:19;;;;;;;8.68;6.60;;;27.40;59.80;;;;;;5072450;28;20025;-81
2023/06/22 09:18:48;;;;;;;8.05;6.97;;;27.50;58.10;;;;;;5077485;28;20392;-82
2023/06/22 09:21:13;;;;;;;7.63;6.93;;;27.60;58.80;;;;;;5077329;28;20095;-81
2023/06/22 09:23:39;;;;;;;9.75;7.68;;;27.30;58.90;;;;;;5077215;28;20433;-81
2023/06/22 09:26:05;;;;;;;7.78;7.07;;;27.00;59.90;;;;;;5077293;28;20489;-81
2023/06/22 09:28:31;;;;;;;7.68;6.95;;;27.20;59.50;;;;;;5075938;28;20075;-81
2023/06/22 09:30:58;;;;;;;7.95;7.20;;;27.50;59.10;;;;;;5075822;28;20020;-81
2023/06/22 09:33:26;;;;;;;8.25;7.45;;;27.40;59.20;;;;;;5075754;28;20021;-82
2023/06/22 09:35:51;;;;;;;8.10;7.30;;;27.50;58.80;;;;;;5075742;28;20039;-81
2023/06/22 09:38:17;;;;;;;8.90;7.03;;;27.60;58.90;;;;;;5076938;28;20033;-81
2023/06/22 09:40:43;;;;;;;8.52;7.80;;;27.60;59.30;;;;;;5077334;28;20470;-81
2023/06/22 09:43:08;;;;;;;8.10;7.32;;;27.40;58.50;;;;;;5076880;28;20111;-82
2023/06/22 09:45:34;;;;;;;8.35;7.55;;;27.80;58.10;;;;;;5075475;28;20385;-82
2023/06/22 09:48:00;;;;;;;7.93;7.13;;;27.50;58.00;;;;;;5076584;28;20497;-81
2023/06/22 09:50:25;;;;;;;6.80;6.13;;;27.80;57.80;;;;;;5076825;28;20112;-81
2023/06/22 09:52:54;;;;;;;8.50;7.68;;;27.80;57.20;;;;;;5075349;28;20381;-83
2023/06/22 09:55:20;;;;;;;7.50;6.80;;;27.50;57.00;;;;;;5075529;28;20402;-81
2023/06/22 09:57:46;;;;;;;8.60;7.90;;;27.70;57.40;;;;;;5075287;28;20025;-82
2023/06/22 10:00:13;;;;;;;7.70;6.80;;;27.70;57.70;;;;;;5075213;28;20079;-81
2023/06/22 10:02:40;;;;;;;8.13;7.32;;;27.90;56.70;;;;;;5075119;28;20036;-82
2023/06/22 10:05:07;;;;;;;10.02;8.40;;;28.00;56.70;;;;;;5075165;28;20032;-81
2023/06/22 10:07:33;;;;;;;7.93;7.10;;;27.60;57.10;;;;;;5076761;28;20025;-81
2023/06/22 10:09:58;;;;;;;8.65;7.78;;;27.70;57.30;;;;;;5076485;28;20078;-81
2023/06/22 10:12:25;;;;;;;8.40;7.60;;;27.90;56.60;;;;;;5076271;28;20151;-80
2023/06/22 10:14:51;;;;;;;8.75;7.85;;;28.00;56.00;;;;;;5076284;28;20021;-82
2023/06/22 10:17:16;;;;;;;8.32;7.53;;;27.80;56.70;;;;;;5076023;28;20378;-81
2023/06/22 10:19:42;;;;;;;8.90;8.10;;;28.00;56.30;;;;;;5074898;28;20036;-81
2023/06/22 10:22:07;;;;;;;8.57;7.75;;;28.10;56.00;;;;;;5074835;28;20036;-82
2023/06/22 10:24:33;;;;;;;8.38;7.05;;;28.00;56.50;;;;;;5076162;28;20497;-83
2023/06/22 10:26:59;;;;;;;19.15;8.35;;;28.50;56.30;;;;;;5076070;28;20052;-81
2023/06/22 10:29:24;;;;;;;8.23;7.43;;;28.10;56.10;;;;;;5075160;28;20027;-80
2023/06/22 10:31:50;;;;;;;8.90;7.78;;;27.80;56.50;;;;;;5074720;28;20059;-80
2023/06/22 10:34:15;;;;;;;8.60;7.78;;;27.60;57.10;;;;;;5076137;28;20423;-80
2023/06/22 10:36:41;;;;;;;8.48;7.20;;;27.60;57.80;;;;;;5075911;28;20017;-81
2023/06/22 10:39:07;;;;;;;8.25;7.55;;;27.80;56.60;;;;;;5075726;28;20017;-80
2023/06/22 10:41:32;;;;;;;8.65;7.80;;;27.90;56.10;;;;;;5075700;28;20032;-80
2023/06/22 10:43:58;;;;;;;8.65;7.68;;;28.30;56.30;;;;;;5075890;28;20468;-81
2023/06/22 10:46:27;;;;;;;8.95;7.65;;;28.70;55.10;;;;;;5074540;28;20020;-81
2023/06/22 10:48:55;;;;;;;7.93;7.13;;;28.70;54.40;;;;;;5074127;28;20036;-80
2023/06/22 10:51:20;;;;;;;8.13;7.43;;;28.80;54.00;;;;;;5074466;28;20025;-81
2023/06/22 10:53:46;;;;;;;8.38;7.68;;;29.00;54.40;;;;;;5075551;28;20016;-81
2023/06/22 10:56:11;;;;;;;10.77;8.18;;;29.10;54.50;;;;;;5075483;28;20128;-81
2023/06/22 10:58:37;;;;;;;8.80;7.90;;;28.80;54.50;;;;;;5074264;28;20155;-81
2023/06/22 11:01:03;;;;;;;8.20;7.38;;;28.60;54.70;;;;;;5074130;28;20044;-80
2023/06/22 11:03:28;;;;;;;8.05;7.32;;;28.60;55.20;;;;;;5075299;28;20044;-80
2023/06/22 11:05:54;;;;;;;8.15;7.43;;;28.70;54.70;;;;;;5075335;28;20092;-79
2023/06/22 11:08:20;;;;;;;9.20;8.32;;;28.40;56.30;;;;;;5075015;28;20070;-80
2023/06/22 11:10:45;;;;;;;9.60;7.80;;;28.60;54.90;;;;;;5073827;28;20016;-80
2023/06/22 11:13:11;;;;;;;8.98;8.18;;;28.90;54.10;;;;;;5074094;28;20111;-80
2023/06/22 11:15:37;;;;;;;10.13;7.82;;;29.10;54.50;;;;;;5073954;28;20021;-80
2023/06/22 11:18:04;;;;;;;9.65;8.05;;;29.00;54.40;;;;;;5075251;28;20021;-80
2023/06/22 11:20:30;;;;;;;13.15;7.80;;;29.20;53.50;;;;;;5073762;28;20012;-80
2023/06/22 11:22:56;;;;;;;10.25;7.15;;;29.30;53.30;;;;;;5074864;28;20447;-80
2023/06/22 11:25:21;;;;;;;8.75;7.72;;;29.30;52.90;;;;;;5073843;28;20108;-82
2023/06/22 11:27:47;;;;;;;8.57;7.72;;;29.30;52.50;;;;;;5073680;28;20028;-82
2023/06/22 11:30:13;;;;;;;8.68;7.88;;;29.10;53.00;;;;;;5074905;28;20381;-81
2023/06/22 11:32:38;;;;;;;9.30;7.93;;;28.90;52.80;;;;;;5074810;28;20094;-81
2023/06/22 11:35:04;;;;;;;8.40;7.70;;;28.90;53.00;;;;;;5073349;28;20017;-81
2023/06/22 11:37:30;;;;;;;9.02;8.25;;;29.20;53.90;;;;;;5074471;28;20048;-81
2023/06/22 11:39:55;;;;;;;13.98;8.93;;;29.20;54.50;;;;;;5073690;28;20017;-81
2023/06/22 11:42:23;;;;;;;9.57;8.55;;;29.00;54.20;;;;;;5073502;28;20506;-82
2023/06/22 11:44:49;;;;;;;10.65;8.25;;;29.00;54.90;;;;;;5073277;28;20024;-81
2023/06/22 11:47:14;;;;;;;9.55;8.57;;;29.00;54.50;;;;;;5072971;28;20063;-82
2023/06/22 11:49:41;;;;;;;9.80;8.10;;;28.80;53.90;;;;;;5074415;28;20498;-81
2023/06/22 11:52:07;;;;;;;11.50;8.68;;;29.20;54.20;;;;;;5074188;28;20036;-82
2023/06/22 11:54:32;;;;;;;8.25;7.45;;;29.50;53.00;;;;;;5073134;28;20020;-81
2023/06/22 11:56:58;;;;;;;8.70;7.88;;;29.80;52.50;;;;;;5074358;28;20020;-82
2023/06/22 11:59:23;;;;;;;8.85;8.05;;;29.70;52.20;;;;;;5073200;28;20474;-82
2023/06/22 12:01:51;;;;;;;8.57;7.68;;;30.10;52.70;;;;;;5073981;28;20024;-82
2023/06/22 12:04:16;;;;;;;8.65;7.93;;;30.50;51.50;;;;;;5072892;28;20088;-81
2023/06/22 12:06:43;;;;;;;12.27;7.82;;;30.50;50.90;;;;;;5072846;28;20051;-82
2023/06/22 12:09:09;;;;;;;8.25;7.45;;;30.20;51.30;;;;;;5072719;28;20024;-82
2023/06/22 12:11:35;;;;;;;8.52;7.72;;;30.00;51.30;;;;;;5072688;28;20111;-81
2023/06/22 12:14:02;;;;;;;8.57;7.78;;;29.90;51.20;;;;;;5074081;28;20513;-80
2023/06/22 12:16:30;;;;;;;9.40;8.38;;;29.60;51.30;;;;;;5074280;28;20021;-81
2023/06/22 12:18:56;;;;;;;14.30;9.07;;;29.40;51.60;;;;;;5072609;28;20385;-81
2023/06/22 12:21:21;;;;;;;10.60;8.88;;;29.20;52.30;;;;;;5072402;28;20028;-81
2023/06/22 12:23:47;;;;;;;10.02;9.13;;;29.10;53.10;;;;;;5072604;28;20035;-82
2023/06/22 12:26:12;;;;;;;9.57;8.57;;;28.90;53.30;;;;;;5072735;28;20036;-81
2023/06/22 12:28:38;;;;;;;9.98;8.52;;;28.80;53.60;;;;;;5072614;28;20120;-81
2023/06/22 12:31:04;;;;;;;9.88;8.00;;;28.80;53.20;;;;;;5072272;28;20024;-81